createdAt,value
2023-02-24T00:02:20.133Z,97843.47
2023-02-24T00:04:51.893Z,97833.91
2023-02-24T00:07:21.589Z,97830.31
2023-02-24T00:09:50.673Z,97813.25
2023-02-24T00:12:21.455Z,97823.25
2023-02-24T00:14:50.552Z,97810.22
2023-02-24T00:17:19.760Z,97803.78
2023-02-24T00:19:48.919Z,97800.19
2023-02-24T00:22:17.983Z,97806.94
2023-02-24T00:24:47.091Z,97804.69
2023-02-24T00:27:16.217Z,97792.09
2023-02-24T00:29:47.495Z,97789.66
2023-02-24T00:32:17.149Z,97796.38
2023-02-24T00:34:47.872Z,97788.78
2023-02-24T00:37:17.024Z,97786.41
2023-02-24T00:39:47.291Z,97772.09
2023-02-24T00:42:16.438Z,97777.00
2023-02-24T00:44:48.757Z,97787.31
2023-02-24T00:47:18.848Z,97773.75
2023-02-24T00:49:48.429Z,97770.56
2023-02-24T00:52:20.684Z,97779.31
2023-02-24T00:54:51.323Z,97767.81
2023-02-24T00:57:21.432Z,97762.78
2023-02-24T00:59:53.632Z,97767.22
2023-02-24T01:02:22.737Z,97768.81
2023-02-24T01:04:52.080Z,97758.78
2023-02-24T01:07:21.706Z,97753.19
2023-02-24T01:09:52.204Z,97740.97
2023-02-24T01:12:38.933Z,97746.09
2023-02-24T01:15:12.218Z,97750.59
2023-02-24T01:17:41.909Z,97735.88
2023-02-24T01:20:18.020Z,97731.41
2023-02-24T01:22:50.236Z,97731.25
2023-02-24T01:25:20.759Z,97735.56
2023-02-24T01:27:50.682Z,97731.53
2023-02-24T01:30:21.420Z,97735.91
2023-02-24T01:32:51.244Z,97736.25
2023-02-24T01:35:20.768Z,97725.06
2023-02-24T01:37:50.553Z,97719.44
2023-02-24T01:40:21.816Z,97725.06
2023-02-24T01:42:51.946Z,97721.03
2023-02-24T01:45:28.832Z,97712.22
2023-02-24T01:48:05.365Z,97710.88
2023-02-24T01:50:38.196Z,97708.06
2023-02-24T01:53:10.141Z,97700.88
2023-02-24T01:55:47.202Z,97704.88
2023-02-24T01:58:25.076Z,97701.53
2023-02-24T02:00:58.644Z,97695.09
2023-02-24T02:03:32.650Z,97690.28
2023-02-24T02:06:04.881Z,97690.38
2023-02-24T02:08:37.141Z,97692.16
2023-02-24T02:11:09.056Z,97674.66
2023-02-24T02:13:40.873Z,97690.13
2023-02-24T02:16:45.075Z,97678.53
2023-02-24T02:19:59.990Z,97681.69
2023-02-24T02:22:59.112Z,97683.44
2023-02-24T02:25:45.359Z,97672.31
2023-02-24T02:29:01.756Z,97692.13
2023-02-24T02:32:08.324Z,97704.06
2023-02-24T02:34:51.135Z,97697.44
2023-02-24T02:37:29.734Z,97694.00
2023-02-24T02:40:16.173Z,97701.19
2023-02-24T02:42:54.115Z,97700.84
2023-02-24T02:45:31.016Z,97696.44
2023-02-24T02:48:08.068Z,97694.03
2023-02-24T02:50:46.070Z,97691.72
2023-02-24T02:53:24.614Z,97693.69
2023-02-24T02:56:00.425Z,97689.41
2023-02-24T02:58:37.230Z,97683.88
2023-02-24T03:01:07.585Z,97684.03
2023-02-24T03:03:42.692Z,97694.38
2023-02-24T03:06:19.284Z,97697.44
2023-02-24T03:08:55.633Z,97685.44
2023-02-24T03:11:27.597Z,97684.28
2023-02-24T03:13:58.556Z,97690.69
2023-02-24T03:16:29.473Z,97684.00
2023-02-24T03:19:05.008Z,97688.75
2023-02-24T03:21:40.599Z,97700.13
2023-02-24T03:24:11.037Z,97682.72
2023-02-24T03:26:49.332Z,97686.56
2023-02-24T03:29:25.424Z,97663.88
2023-02-24T03:32:05.012Z,97672.16
2023-02-24T03:34:47.463Z,97667.38
2023-02-24T03:37:25.605Z,97670.50
2023-02-24T03:39:57.755Z,97674.53
2023-02-24T03:42:33.881Z,97674.88
2023-02-24T03:45:06.399Z,97668.19
2023-02-24T03:47:36.149Z,97669.81
2023-02-24T03:50:14.456Z,97659.81
2023-02-24T03:52:56.452Z,97659.44
2023-02-24T03:55:38.950Z,97645.84
2023-02-24T03:58:19.514Z,97666.59
2023-02-24T04:00:57.902Z,97660.66
2023-02-24T04:03:35.487Z,97664.25
2023-02-24T04:06:28.435Z,97656.59
2023-02-24T04:09:10.459Z,97655.00
2023-02-24T04:11:56.504Z,97651.06
2023-02-24T04:14:31.975Z,97661.84
2023-02-24T04:17:09.103Z,97648.53
2023-02-24T04:19:44.120Z,97650.16
2023-02-24T04:22:17.586Z,97650.91
2023-02-24T04:24:51.758Z,97646.19
2023-02-24T04:27:22.059Z,97649.34
2023-02-24T04:29:56.385Z,97643.75
2023-02-24T04:32:30.684Z,97645.97
2023-02-24T04:35:06.660Z,97634.88
2023-02-24T04:37:39.756Z,97626.13
2023-02-24T04:40:16.599Z,97625.34
2023-02-24T04:42:50.013Z,97629.31
2023-02-24T04:45:22.778Z,97615.81
2023-02-24T04:47:56.291Z,97610.31
2023-02-24T04:50:26.948Z,97604.75
2023-02-24T04:53:00.887Z,97609.56
2023-02-24T04:55:34.216Z,97598.09
2023-02-24T04:58:04.102Z,97598.06
2023-02-24T05:00:35.893Z,97593.78
2023-02-24T05:03:07.954Z,97593.03
2023-02-24T05:05:37.177Z,97589.09
2023-02-24T05:08:08.877Z,97589.84
2023-02-24T05:10:42.008Z,97586.66
2023-02-24T05:13:15.238Z,97587.41
2023-02-24T05:15:46.740Z,97587.41
2023-02-24T05:18:20.225Z,97583.44
2023-02-24T05:21:10.020Z,97596.59
2023-02-24T05:23:44.312Z,97590.31
2023-02-24T05:26:18.437Z,97592.69
2023-02-24T05:28:52.324Z,97599.81
2023-02-24T05:31:26.542Z,97598.59
2023-02-24T05:33:59.032Z,97595.41
2023-02-24T05:36:32.370Z,97589.81
2023-02-24T05:39:06.342Z,97584.19
2023-02-24T05:41:39.617Z,97583.72
2023-02-24T05:44:13.477Z,97587.22
2023-02-24T05:46:46.914Z,97588.81
2023-02-24T05:49:23.419Z,97582.84
2023-02-24T05:51:55.872Z,97586.03
2023-02-24T05:54:29.706Z,97576.91
2023-02-24T05:57:03.829Z,97577.78
2023-02-24T05:59:33.814Z,97577.03
2023-02-24T06:02:07.454Z,97582.63
2023-02-24T06:04:45.895Z,97573.88
2023-02-24T06:07:19.814Z,97570.72
2023-02-24T06:09:53.876Z,97565.97
2023-02-24T06:12:27.813Z,97573.88
2023-02-24T06:14:58.209Z,97574.34
2023-02-24T06:17:28.617Z,97569.22
2023-02-24T06:19:57.822Z,97575.16
2023-02-24T06:22:29.264Z,97574.00
2023-02-24T06:24:58.586Z,97577.09
2023-02-24T06:27:29.215Z,97579.50
2023-02-24T06:29:58.884Z,97573.53
2023-02-24T06:32:28.285Z,97570.03
2023-02-24T06:34:59.438Z,97572.44
2023-02-24T06:37:30.002Z,97580.41
2023-02-24T06:39:59.501Z,97570.88
2023-02-24T06:42:29.971Z,97571.94
2023-02-24T06:44:59.920Z,97571.09
2023-02-24T06:47:29.066Z,97568.31
2023-02-24T06:49:58.137Z,97558.31
2023-02-24T06:52:27.282Z,97549.13
2023-02-24T06:54:56.353Z,97545.19
2023-02-24T06:57:25.430Z,97549.53
2023-02-24T06:59:56.227Z,97553.56
2023-02-24T07:02:29.988Z,97554.78
2023-02-24T07:04:59.121Z,97563.56
2023-02-24T07:07:29.163Z,97561.69
2023-02-24T07:09:58.426Z,97565.72
2023-02-24T07:12:27.458Z,97573.34
2023-02-24T07:14:57.948Z,97570.25
2023-02-24T07:17:27.080Z,97557.19
2023-02-24T07:19:57.282Z,97560.81
2023-02-24T07:22:26.554Z,97564.78
2023-02-24T07:25:00.585Z,97567.56
2023-02-24T07:27:30.217Z,97559.19
2023-02-24T07:30:06.184Z,97569.53
2023-02-24T07:32:35.519Z,97565.56
2023-02-24T07:35:05.172Z,97557.56
2023-02-24T07:37:34.968Z,97571.84
2023-02-24T07:40:08.012Z,97573.44
2023-02-24T07:42:37.602Z,97577.41
2023-02-24T07:45:13.420Z,97570.16
2023-02-24T07:47:42.701Z,97569.38
2023-02-24T07:50:18.385Z,97564.19
2023-02-24T07:52:49.074Z,97557.03
2023-02-24T07:55:18.612Z,97550.19
2023-02-24T07:57:49.025Z,97553.72
2023-02-24T08:00:20.648Z,97547.69
2023-02-24T08:02:51.628Z,97546.81
2023-02-24T08:05:21.639Z,97543.94
2023-02-24T08:07:51.999Z,97545.66
2023-02-24T08:10:27.566Z,97540.78
2023-02-24T08:13:03.126Z,97538.22
2023-02-24T08:15:34.957Z,97518.81
2023-02-24T08:18:04.038Z,97528.34
2023-02-24T08:20:52.141Z,97512.47
2023-02-24T08:23:23.626Z,97514.13
2023-02-24T08:25:53.823Z,97511.78
2023-02-24T08:28:26.919Z,97513.31
2023-02-24T08:30:57.599Z,97513.81
2023-02-24T08:33:30.236Z,97509.56
2023-02-24T08:36:02.619Z,97503.59
2023-02-24T08:38:42.174Z,97494.44
2023-02-24T08:41:20.535Z,97494.84
2023-02-24T08:43:50.633Z,97500.16
2023-02-24T08:46:26.508Z,97497.16
2023-02-24T08:49:00.758Z,97492.66
2023-02-24T08:51:34.856Z,97490.81
2023-02-24T08:54:11.324Z,97490.47
2023-02-24T08:56:43.717Z,97488.38
2023-02-24T08:59:29.284Z,97490.03
2023-02-24T09:02:14.643Z,97494.25
2023-02-24T09:04:46.062Z,97479.97
2023-02-24T09:07:17.790Z,97486.78
2023-02-24T09:09:46.922Z,97483.38
2023-02-24T09:12:24.773Z,97480.06
2023-02-24T09:14:56.783Z,97479.88
2023-02-24T09:17:50.196Z,97470.63
2023-02-24T09:20:56.400Z,97466.00
2023-02-24T09:23:30.966Z,97463.97
2023-02-24T09:26:11.163Z,97454.19
2023-02-24T09:28:48.733Z,97452.81
2023-02-24T09:31:18.182Z,97451.50
2023-02-24T09:33:51.195Z,97449.91
2023-02-24T09:36:28.062Z,97442.34
2023-02-24T09:39:14.805Z,97445.50
2023-02-24T09:41:57.295Z,97440.94
2023-02-24T09:44:34.360Z,97438.59
2023-02-24T09:47:14.076Z,97437.34
2023-02-24T09:49:56.239Z,97424.44
2023-02-24T09:52:39.894Z,97434.72
2023-02-24T09:55:26.113Z,97423.66
2023-02-24T09:58:20.225Z,97431.16
2023-02-24T10:01:22.044Z,97435.72
2023-02-24T10:04:14.781Z,97429.41
2023-02-24T10:06:52.289Z,97427.72
2023-02-24T10:09:27.187Z,97435.16
2023-02-24T10:12:04.665Z,97423.69
2023-02-24T10:14:44.672Z,97425.88
2023-02-24T10:17:24.073Z,97424.50
2023-02-24T10:20:00.308Z,97417.28
2023-02-24T10:22:50.599Z,97414.75
2023-02-24T10:25:43.508Z,97416.47
2023-02-24T10:28:35.743Z,97411.72
2023-02-24T10:31:25.439Z,97405.78
2023-02-24T10:34:01.761Z,97391.91
2023-02-24T10:36:36.264Z,97381.41
2023-02-24T10:39:17.127Z,97396.69
2023-02-24T10:41:49.311Z,97374.44
2023-02-24T10:44:25.147Z,97383.94
2023-02-24T10:47:11.729Z,97378.72
2023-02-24T10:49:57.037Z,97374.31
2023-02-24T10:52:48.930Z,97366.75
2023-02-24T10:55:39.297Z,97351.81
2023-02-24T10:58:16.197Z,97351.63
2023-02-24T11:01:01.195Z,97342.44
2023-02-24T11:03:42.291Z,97335.50
2023-02-24T11:06:38.800Z,97336.75
2023-02-24T11:09:35.540Z,97331.06
2023-02-24T11:12:35.052Z,97317.56
2023-02-24T11:15:33.821Z,97318.19
2023-02-24T11:18:07.088Z,97315.97
2023-02-24T11:20:49.073Z,97301.47
2023-02-24T11:23:24.683Z,97298.66
2023-02-24T11:26:00.802Z,97285.63
2023-02-24T11:29:01.737Z,97294.47
2023-02-24T11:31:54.176Z,97283.56
2023-02-24T11:34:33.450Z,97286.63
2023-02-24T11:37:22.786Z,97284.25
2023-02-24T11:40:01.807Z,97274.25
2023-02-24T11:42:38.835Z,97266.13
2023-02-24T11:45:23.916Z,97266.16
2023-02-24T11:47:58.823Z,97252.09
2023-02-24T11:50:43.959Z,97254.16
2023-02-24T11:53:30.308Z,97242.38
2023-02-24T11:56:04.528Z,97242.06
2023-02-24T11:58:44.357Z,97233.75
2023-02-24T12:01:23.402Z,97227.09
2023-02-24T12:04:01.237Z,97219.84
2023-02-24T12:06:39.070Z,97217.78
2023-02-24T12:09:14.576Z,97218.78
2023-02-24T12:11:53.606Z,97221.31
2023-02-24T12:14:37.397Z,97193.09
2023-02-24T12:17:21.289Z,97205.38
2023-02-24T12:20:02.318Z,97191.22
2023-02-24T12:22:44.704Z,97187.97
2023-02-24T12:25:16.841Z,97189.81
2023-02-24T12:28:04.536Z,97187.88
2023-02-24T12:30:57.649Z,97179.25
2023-02-24T12:33:49.331Z,97170.84
2023-02-24T12:36:37.336Z,97163.78
2023-02-24T12:39:12.781Z,97168.59
2023-02-24T12:42:01.063Z,97157.75
2023-02-24T12:44:40.708Z,97144.31
2023-02-24T12:47:13.999Z,97141.22
2023-02-24T12:50:19.365Z,97144.09
2023-02-24T12:53:03.382Z,97129.81
2023-02-24T12:55:42.464Z,97127.03
2023-02-24T12:58:17.439Z,97118.72
2023-02-24T13:01:07.380Z,97123.72
2023-02-24T13:04:08.194Z,97119.63
2023-02-24T13:06:54.538Z,97112.13
2023-02-24T13:09:37.129Z,97099.97
2023-02-24T13:12:18.347Z,97104.16
2023-02-24T13:14:50.264Z,97095.78
2023-02-24T13:17:23.689Z,97093.16
2023-02-24T13:19:56.059Z,97088.78
2023-02-24T13:22:31.281Z,97083.25
2023-02-24T13:25:21.023Z,97077.53
2023-02-24T13:28:01.164Z,97077.22
2023-02-24T13:30:42.775Z,97069.69
2023-02-24T13:33:35.031Z,97071.59
2023-02-24T13:36:16.976Z,97070.72
2023-02-24T13:38:49.881Z,97077.34
2023-02-24T13:41:41.953Z,97066.19
2023-02-24T13:44:28.109Z,97057.22
2023-02-24T13:47:30.459Z,97057.81
2023-02-24T13:50:21.365Z,97069.63
2023-02-24T13:53:35.599Z,97059.31
2023-02-24T13:56:25.066Z,97056.56
2023-02-24T13:59:17.115Z,97053.03
2023-02-24T14:01:51.107Z,97046.88
2023-02-24T14:04:27.311Z,97052.34
2023-02-24T14:07:03.301Z,97050.28
2023-02-24T14:09:36.574Z,97044.78
2023-02-24T14:12:14.088Z,97040.91
2023-02-24T14:14:45.760Z,97029.97
2023-02-24T14:17:28.288Z,97039.59
2023-02-24T14:20:09.858Z,97031.09
2023-02-24T14:22:45.950Z,97035.16
2023-02-24T14:44:53.987Z,96989.72
2023-02-24T14:47:26.496Z,96985.53
2023-02-24T14:49:59.754Z,96988.47
2023-02-24T14:52:41.224Z,96988.25
2023-02-24T14:55:17.590Z,96987.84
2023-02-24T14:57:57.221Z,96985.13
2023-02-24T15:00:33.679Z,96985.56
2023-02-24T15:03:11.401Z,96982.94
2023-02-24T15:05:47.188Z,96975.66
2023-02-24T15:08:30.954Z,96974.44
2023-02-24T15:11:00.109Z,96971.97
2023-02-24T15:13:38.925Z,96974.72
2023-02-24T15:16:15.111Z,96969.78
2023-02-24T15:18:44.563Z,96950.88
2023-02-24T15:21:24.614Z,96956.56
2023-02-24T15:24:01.001Z,96948.69
2023-02-24T15:26:37.623Z,96938.69
2023-02-24T15:29:16.165Z,96941.16
2023-02-24T15:31:50.147Z,96931.19
2023-02-24T15:34:22.115Z,96932.00
2023-02-24T15:36:56.868Z,96924.69
2023-02-24T15:39:31.194Z,96920.47
2023-02-24T15:42:21.845Z,96925.53
2023-02-24T15:44:58.806Z,96917.44
2023-02-24T15:47:42.089Z,96920.75
2023-02-24T15:50:12.999Z,96914.31
2023-02-24T15:52:42.854Z,96908.69
2023-02-24T15:55:23.087Z,96910.94
2023-02-24T15:58:00.906Z,96904.38
2023-02-24T16:00:33.054Z,96901.91
2023-02-24T16:03:03.576Z,96896.19
2023-02-24T16:05:34.555Z,96894.00
2023-02-24T16:08:03.956Z,96885.31
2023-02-24T16:10:33.298Z,96885.75
2023-02-24T16:13:04.846Z,96884.88
2023-02-24T16:15:38.097Z,96880.28
2023-02-24T16:18:20.900Z,96889.69
2023-02-24T16:20:54.520Z,96879.53
2023-02-24T16:23:28.690Z,96874.81
2023-02-24T16:26:00.371Z,96874.50
2023-02-24T16:28:29.690Z,96869.00
2023-02-24T16:30:58.900Z,96871.31
2023-02-24T16:33:29.573Z,96869.13
2023-02-24T16:35:58.891Z,96859.97
2023-02-24T16:38:28.111Z,96860.88
2023-02-24T16:40:57.401Z,96856.41
2023-02-24T16:43:26.452Z,96861.97
2023-02-24T16:46:01.704Z,96854.06
2023-02-24T16:48:37.312Z,96848.78
2023-02-24T16:51:07.801Z,96846.84
2023-02-24T16:53:36.994Z,96847.75
2023-02-24T16:56:07.549Z,96847.47
2023-02-24T16:58:37.239Z,96841.50
2023-02-24T17:01:06.780Z,96844.47
2023-02-24T17:03:43.479Z,96844.81
2023-02-24T17:06:12.796Z,96844.75
2023-02-24T17:08:43.865Z,96841.66
2023-02-24T17:11:19.356Z,96826.94
2023-02-24T17:13:48.379Z,96830.59
2023-02-24T17:16:17.341Z,96838.06
2023-02-24T17:18:47.739Z,96839.09
2023-02-24T17:21:18.137Z,96841.56
2023-02-24T17:23:47.119Z,96838.22
2023-02-24T17:26:17.083Z,96835.75
2023-02-24T17:28:46.689Z,96837.44
2023-02-24T17:31:15.820Z,96833.56
2023-02-24T17:33:44.771Z,96841.69
2023-02-24T17:36:15.348Z,96836.16
2023-02-24T17:38:44.303Z,96846.41
2023-02-24T17:41:13.191Z,96834.81
2023-02-24T17:43:42.228Z,96832.81
2023-02-24T17:46:11.326Z,96825.69
2023-02-24T17:48:40.279Z,96823.97
2023-02-24T17:51:09.277Z,96837.34
2023-02-24T17:53:39.740Z,96835.59
2023-02-24T17:56:10.416Z,96840.22
2023-02-24T17:58:40.110Z,96838.78
2023-02-24T18:01:09.204Z,96830.38
2023-02-24T18:03:38.305Z,96827.13
2023-02-24T18:06:10.489Z,96825.84
2023-02-24T18:08:41.693Z,96825.25
2023-02-24T18:11:15.161Z,96822.53
2023-02-24T18:13:44.580Z,96826.28
2023-02-24T18:16:16.588Z,96821.06
2023-02-24T18:18:45.731Z,96822.88
2023-02-24T18:21:14.832Z,96814.88
2023-02-24T18:23:45.150Z,96804.81
2023-02-24T18:26:14.258Z,96809.56
2023-02-24T18:28:44.176Z,96809.91
2023-02-24T18:31:17.056Z,96795.13
2023-02-24T18:33:46.526Z,96798.38
2023-02-24T18:36:16.344Z,96791.19
2023-02-24T18:38:46.716Z,96795.84
2023-02-24T18:41:20.104Z,96792.06
2023-02-24T18:43:53.718Z,96792.38
2023-02-24T18:46:24.556Z,96798.38
2023-02-24T18:48:54.218Z,96796.97
2023-02-24T18:51:26.334Z,96798.13
2023-02-24T18:54:00.420Z,96790.31
2023-02-24T18:56:34.816Z,96787.44
2023-02-24T18:59:04.975Z,96781.41
2023-02-24T19:01:36.783Z,96786.75
2023-02-24T19:04:07.148Z,96780.00
2023-02-24T19:06:37.418Z,96786.13
2023-02-24T19:09:10.807Z,96777.06
2023-02-24T19:11:41.614Z,96773.06
2023-02-24T19:14:13.966Z,96781.69
2023-02-24T19:16:44.089Z,96779.69
2023-02-24T19:19:17.616Z,96778.47
2023-02-24T19:21:48.560Z,96770.22
2023-02-24T19:24:19.556Z,96760.91
2023-02-24T19:26:51.210Z,96757.28
2023-02-24T19:29:25.519Z,96766.41
2023-02-24T19:31:57.961Z,96764.19
2023-02-24T19:34:27.857Z,96770.97
2023-02-24T19:36:58.083Z,96759.41
2023-02-24T19:39:34.804Z,96756.31
2023-02-24T19:42:04.233Z,96771.09
2023-02-24T19:44:36.541Z,96756.63
2023-02-24T19:47:05.957Z,96753.16
2023-02-24T19:49:36.750Z,96752.06
2023-02-24T19:52:07.790Z,96745.66
2023-02-24T19:54:38.976Z,96747.59
2023-02-24T19:57:10.356Z,96737.84
2023-02-24T19:59:40.996Z,96744.41
2023-02-24T20:02:13.533Z,96746.31
2023-02-24T20:04:47.025Z,96739.44
2023-02-24T20:07:20.045Z,96736.84
2023-02-24T20:09:55.573Z,96724.41
2023-02-24T20:12:29.913Z,96712.72
2023-02-24T20:15:00.275Z,96713.78
2023-02-24T20:17:30.831Z,96724.91
2023-02-24T20:20:00.590Z,96716.72
2023-02-24T20:22:29.733Z,96714.66
2023-02-24T20:25:05.343Z,96715.41
2023-02-24T20:27:37.228Z,96722.44
2023-02-24T20:30:08.246Z,96721.78
2023-02-24T20:32:40.642Z,96719.69
2023-02-24T20:35:15.090Z,96717.44
2023-02-24T20:37:48.144Z,96718.56
2023-02-24T20:40:20.921Z,96722.59
2023-02-24T20:42:50.011Z,96727.03
2023-02-24T20:45:24.915Z,96719.25
2023-02-24T20:48:06.938Z,96715.13
2023-02-24T20:50:38.054Z,96717.94
2023-02-24T20:53:08.118Z,96705.56
2023-02-24T20:55:38.755Z,96709.03
2023-02-24T20:58:08.786Z,96705.41
2023-02-24T21:00:40.162Z,96694.66
2023-02-24T21:03:12.605Z,96692.47
2023-02-24T21:05:41.792Z,96691.94
2023-02-24T21:08:12.243Z,96689.75
2023-02-24T21:10:45.258Z,96692.66
2023-02-24T21:13:16.199Z,96680.31
2023-02-24T21:15:52.418Z,96680.88
2023-02-24T21:18:23.618Z,96685.59
2023-02-24T21:20:54.539Z,96678.03
2023-02-24T21:23:23.948Z,96676.69
2023-02-24T21:25:55.184Z,96661.22
2023-02-24T21:28:24.534Z,96663.56
2023-02-24T21:30:53.879Z,96669.25
2023-02-24T21:33:22.931Z,96658.81
2023-02-24T21:36:00.366Z,96651.28
2023-02-24T21:38:31.421Z,96658.25
2023-02-24T21:41:02.401Z,96649.16
2023-02-24T21:43:32.322Z,96646.56
2023-02-24T21:46:02.856Z,96647.41
2023-02-24T21:48:31.846Z,96663.47
2023-02-24T21:51:01.154Z,96658.25
2023-02-24T21:53:32.697Z,96656.63
2023-02-24T21:56:11.001Z,96654.84
2023-02-24T21:58:40.904Z,96659.06
2023-02-24T22:01:11.857Z,96662.41
2023-02-24T22:03:41.590Z,96657.28
2023-02-24T22:06:11.866Z,96652.22
2023-02-24T22:08:43.551Z,96650.72
2023-02-24T22:11:17.272Z,96649.28
2023-02-24T22:13:48.019Z,96642.13
2023-02-24T22:16:20.916Z,96633.75
2023-02-24T22:18:52.207Z,96631.66
2023-02-24T22:21:24.675Z,96627.25
2023-02-24T22:24:01.639Z,96632.47
2023-02-24T22:26:33.112Z,96621.13
2023-02-24T22:29:04.131Z,96619.16
2023-02-24T22:31:38.447Z,96600.97
2023-02-24T22:34:08.876Z,96612.84
2023-02-24T22:36:39.463Z,96606.53
2023-02-24T22:39:09.591Z,96605.84
2023-02-24T22:41:40.066Z,96601.06
2023-02-24T22:44:09.189Z,96594.34
2023-02-24T22:46:39.961Z,96590.00
2023-02-24T22:49:08.973Z,96588.78
2023-02-24T22:51:38.180Z,96600.28
2023-02-24T22:54:07.226Z,96592.38
2023-02-24T22:56:40.578Z,96587.00
2023-02-24T22:59:09.516Z,96577.97
2023-02-24T23:01:39.897Z,96575.59
2023-02-24T23:04:13.596Z,96575.09
2023-02-24T23:06:44.599Z,96573.88
2023-02-24T23:09:19.632Z,96578.06
2023-02-24T23:11:50.122Z,96575.59
2023-02-24T23:14:20.649Z,96568.84
2023-02-24T23:16:57.490Z,96564.69
2023-02-24T23:19:26.463Z,96562.28
2023-02-24T23:21:56.475Z,96560.75
2023-02-24T23:24:25.751Z,96562.03
2023-02-24T23:26:57.763Z,96556.81
2023-02-24T23:29:28.008Z,96565.66
2023-02-24T23:31:57.391Z,96555.41
2023-02-24T23:34:26.492Z,96561.31
2023-02-24T23:36:58.698Z,96560.94
2023-02-24T23:39:30.219Z,96558.63
2023-02-24T23:42:00.668Z,96553.84
2023-02-24T23:44:29.717Z,96536.47
2023-02-24T23:46:58.645Z,96543.91
2023-02-24T23:49:36.268Z,96530.47
2023-02-24T23:52:58.655Z,96519.84
2023-02-24T23:55:30.563Z,96502.38
2023-02-24T23:58:01.365Z,96513.56
